sensor_id;sensor_type;location;lat;lon;timestamp;pressure;altitude;pressure_sealevel;temperature;humidity
68226;BME280;55045;49.410;11.030;2022-12-10T00:01:11;96965.91;;;-2.64;100.00
68226;BME280;55045;49.410;11.030;2022-12-10T00:04:15;96964.41;;;-2.76;100.00
68226;BME280;55045;49.410;11.030;2022-12-10T00:07:20;96960.84;;;-2.64;100.00
68226;BME280;55045;49.410;11.030;2022-12-10T00:10:23;96958.31;;;-2.66;100.00
68226;BME280;55045;49.410;11.030;2022-12-10T00:13:26;96955.38;;;-2.98;100.00
68226;BME280;55045;49.410;11.030;2022-12-10T00:16:30;96962.84;;;-2.87;100.00
68226;BME280;55045;49.410;11.030;2022-12-10T00:19:35;96950.28;;;-2.95;100.00
68226;BME280;55045;49.410;11.030;2022-12-10T00:22:40;96947.97;;;-3.13;100.00
68226;BME280;55045;49.410;11.030;2022-12-10T00:26:02;96940.22;;;-3.03;100.00
68226;BME280;55045;49.410;11.030;2022-12-10T00:29:09;96944.63;;;-3.17;100.00
68226;BME280;55045;49.410;11.030;2022-12-10T00:32:13;96944.69;;;-3.20;100.00
68226;BME280;55045;49.410;11.030;2022-12-10T00:35:18;96939.19;;;-2.90;100.00
68226;BME280;55045;49.410;11.030;2022-12-10T00:38:23;96945.56;;;-3.23;100.00
68226;BME280;55045;49.410;11.030;2022-12-10T00:41:26;96947.66;;;-2.91;100.00
68226;BME280;55045;49.410;11.030;2022-12-10T00:44:29;96949.31;;;-2.88;100.00
68226;BME280;55045;49.410;11.030;2022-12-10T00:47:33;96961.38;;;-3.04;100.00
68226;BME280;55045;49.410;11.030;2022-12-10T00:50:56;96958.28;;;-2.63;100.00
68226;BME280;55045;49.410;11.030;2022-12-10T00:54:01;96953.75;;;-3.02;100.00
68226;BME280;55045;49.410;11.030;2022-12-10T00:57:04;96955.91;;;-2.76;100.00
68226;BME280;55045;49.410;11.030;2022-12-10T01:00:09;96957.78;;;-2.86;100.00
68226;BME280;55045;49.410;11.030;2022-12-10T01:03:14;96960.34;;;-2.32;100.00
68226;BME280;55045;49.410;11.030;2022-12-10T01:06:21;96966.94;;;-2.77;100.00
68226;BME280;55045;49.410;11.030;2022-12-10T01:09:29;96971.59;;;-2.48;100.00
68226;BME280;55045;49.410;11.030;2022-12-10T01:12:33;96967.75;;;-2.74;100.00
68226;BME280;55045;49.410;11.030;2022-12-10T01:15:37;96978.56;;;-2.63;100.00
68226;BME280;55045;49.410;11.030;2022-12-10T01:18:42;96977.38;;;-3.00;100.00
68226;BME280;55045;49.410;11.030;2022-12-10T01:21:49;96984.81;;;-2.85;100.00
68226;BME280;55045;49.410;11.030;2022-12-10T01:24:54;96986.25;;;-2.69;100.00
68226;BME280;55045;49.410;11.030;2022-12-10T01:27:57;96988.91;;;-2.75;100.00
68226;BME280;55045;49.410;11.030;2022-12-10T01:31:02;97000.81;;;-2.81;100.00
68226;BME280;55045;49.410;11.030;2022-12-10T01:34:07;97011.63;;;-2.67;100.00
68226;BME280;55045;49.410;11.030;2022-12-10T01:37:12;97005.00;;;-2.79;100.00
68226;BME280;55045;49.410;11.030;2022-12-10T01:40:17;97004.69;;;-2.54;100.00
68226;BME280;55045;49.410;11.030;2022-12-10T01:43:20;97008.38;;;-2.75;100.00
68226;BME280;55045;49.410;11.030;2022-12-10T01:46:28;97005.75;;;-2.71;100.00
68226;BME280;55045;49.410;11.030;2022-12-10T01:49:36;97003.09;;;-2.62;100.00
68226;BME280;55045;49.410;11.030;2022-12-10T01:52:39;97002.72;;;-2.37;100.00
68226;BME280;55045;49.410;11.030;2022-12-10T01:55:48;96899.19;;;-3.32;100.00
68226;BME280;55045;49.410;11.030;2022-12-10T01:58:54;96990.66;;;-2.80;100.00
68226;BME280;55045;49.410;11.030;2022-12-10T02:02:03;96999.75;;;-2.67;100.00
68226;BME280;55045;49.410;11.030;2022-12-10T02:05:20;96916.88;;;-3.28;100.00
68226;BME280;55045;49.410;11.030;2022-12-10T02:08:32;97015.78;;;-2.62;100.00
68226;BME280;55045;49.410;11.030;2022-12-10T02:11:42;97013.44;;;-2.77;100.00
68226;BME280;55045;49.410;11.030;2022-12-10T02:14:53;97015.97;;;-2.77;100.00
68226;BME280;55045;49.410;11.030;2022-12-10T02:18:01;97014.41;;;-2.27;100.00
68226;BME280;55045;49.410;11.030;2022-12-10T02:21:10;97019.16;;;-2.61;100.00
68226;BME280;55045;49.410;11.030;2022-12-10T02:24:20;97015.91;;;-2.71;100.00
68226;BME280;55045;49.410;11.030;2022-12-10T02:27:33;97023.31;;;-2.54;100.00
68226;BME280;55045;49.410;11.030;2022-12-10T02:30:41;97019.50;;;-2.27;100.00
68226;BME280;55045;49.410;11.030;2022-12-10T02:33:48;97010.72;;;-2.62;100.00
68226;BME280;55045;49.410;11.030;2022-12-10T02:36:57;97007.97;;;-2.48;100.00
68226;BME280;55045;49.410;11.030;2022-12-10T02:40:07;97017.22;;;-2.45;100.00
68226;BME280;55045;49.410;11.030;2022-12-10T02:43:21;97008.81;;;-2.47;100.00
68226;BME280;55045;49.410;11.030;2022-12-10T02:46:31;97014.94;;;-2.04;100.00
68226;BME280;55045;49.410;11.030;2022-12-10T02:49:39;96977.66;;;-2.58;100.00
68226;BME280;55045;49.410;11.030;2022-12-10T02:52:43;97010.50;;;-1.92;100.00
68226;BME280;55045;49.410;11.030;2022-12-10T02:56:01;97017.19;;;-2.42;100.00
68226;BME280;55045;49.410;11.030;2022-12-10T02:59:19;97008.84;;;-2.50;100.00
68226;BME280;55045;49.410;11.030;2022-12-10T03:02:37;97024.13;;;-2.53;100.00
68226;BME280;55045;49.410;11.030;2022-12-10T03:05:45;96975.28;;;-2.69;100.00
68226;BME280;55045;49.410;11.030;2022-12-10T03:08:51;97014.28;;;-2.75;100.00
68226;BME280;55045;49.410;11.030;2022-12-10T03:12:00;97013.22;;;-2.60;100.00
68226;BME280;55045;49.410;11.030;2022-12-10T03:15:08;97002.13;;;-2.53;100.00
68226;BME280;55045;49.410;11.030;2022-12-10T03:18:15;97003.00;;;-2.57;100.00
68226;BME280;55045;49.410;11.030;2022-12-10T03:21:20;97001.47;;;-2.67;100.00
68226;BME280;55045;49.410;11.030;2022-12-10T03:24:29;97000.50;;;-2.58;100.00
68226;BME280;55045;49.410;11.030;2022-12-10T03:27:33;97003.84;;;-2.56;100.00
68226;BME280;55045;49.410;11.030;2022-12-10T03:30:39;96998.50;;;-2.38;100.00
68226;BME280;55045;49.410;11.030;2022-12-10T03:33:49;96990.13;;;-2.42;100.00
68226;BME280;55045;49.410;11.030;2022-12-10T03:36:53;96992.91;;;-2.60;100.00
68226;BME280;55045;49.410;11.030;2022-12-10T03:39:58;96985.31;;;-2.62;100.00
68226;BME280;55045;49.410;11.030;2022-12-10T03:43:02;96980.19;;;-2.05;100.00
68226;BME280;55045;49.410;11.030;2022-12-10T03:46:07;96976.66;;;-2.48;100.00
68226;BME280;55045;49.410;11.030;2022-12-10T03:49:13;96977.75;;;-2.63;100.00
68226;BME280;55045;49.410;11.030;2022-12-10T03:52:17;96943.22;;;-2.75;100.00
68226;BME280;55045;49.410;11.030;2022-12-10T03:55:20;96976.78;;;-2.57;100.00
68226;BME280;55045;49.410;11.030;2022-12-10T03:58:23;96974.22;;;-2.53;100.00
68226;BME280;55045;49.410;11.030;2022-12-10T04:01:27;96973.38;;;-2.01;100.00
68226;BME280;55045;49.410;11.030;2022-12-10T04:04:32;96975.94;;;-2.56;100.00
68226;BME280;55045;49.410;11.030;2022-12-10T04:07:36;96975.34;;;-2.18;100.00
68226;BME280;55045;49.410;11.030;2022-12-10T04:10:42;96973.56;;;-2.66;100.00
68226;BME280;55045;49.410;11.030;2022-12-10T04:13:45;96970.91;;;-2.06;100.00
68226;BME280;55045;49.410;11.030;2022-12-10T04:17:06;96969.91;;;-2.49;100.00
68226;BME280;55045;49.410;11.030;2022-12-10T04:20:11;96972.03;;;-2.79;100.00
68226;BME280;55045;49.410;11.030;2022-12-10T04:23:28;96972.94;;;-2.83;100.00
68226;BME280;55045;49.410;11.030;2022-12-10T04:26:50;96959.81;;;-2.52;100.00
68226;BME280;55045;49.410;11.030;2022-12-10T04:29:58;96977.69;;;-2.60;100.00
68226;BME280;55045;49.410;11.030;2022-12-10T04:34:47;96976.09;;;-2.67;100.00
68226;BME280;55045;49.410;11.030;2022-12-10T04:37:50;96987.06;;;-2.67;100.00
68226;BME280;55045;49.410;11.030;2022-12-10T04:40:54;96982.88;;;-2.69;100.00
68226;BME280;55045;49.410;11.030;2022-12-10T04:43:57;96971.53;;;-2.45;100.00
68226;BME280;55045;49.410;11.030;2022-12-10T04:47:00;96968.38;;;-2.59;100.00
68226;BME280;55045;49.410;11.030;2022-12-10T04:50:06;96973.94;;;-2.35;100.00
68226;BME280;55045;49.410;11.030;2022-12-10T04:53:10;96971.13;;;-2.76;100.00
68226;BME280;55045;49.410;11.030;2022-12-10T04:56:14;96974.50;;;-2.74;100.00
68226;BME280;55045;49.410;11.030;2022-12-10T04:59:17;96973.22;;;-2.44;100.00
68226;BME280;55045;49.410;11.030;2022-12-10T05:02:21;96969.00;;;-2.44;100.00
68226;BME280;55045;49.410;11.030;2022-12-10T05:05:26;96969.19;;;-2.57;100.00
68226;BME280;55045;49.410;11.030;2022-12-10T05:08:30;96970.16;;;-2.65;100.00
68226;BME280;55045;49.410;11.030;2022-12-10T05:11:34;96974.34;;;-2.62;100.00
68226;BME280;55045;49.410;11.030;2022-12-10T05:14:37;96978.75;;;-2.75;100.00
68226;BME280;55045;49.410;11.030;2022-12-10T05:17:41;96966.13;;;-2.79;100.00
68226;BME280;55045;49.410;11.030;2022-12-10T05:20:45;96972.84;;;-2.75;100.00
68226;BME280;55045;49.410;11.030;2022-12-10T05:23:51;96972.97;;;-2.84;100.00
68226;BME280;55045;49.410;11.030;2022-12-10T05:26:53;96986.69;;;-3.01;100.00
68226;BME280;55045;49.410;11.030;2022-12-10T05:29:57;96985.56;;;-2.80;100.00
68226;BME280;55045;49.410;11.030;2022-12-10T05:33:01;96982.38;;;-2.93;100.00
68226;BME280;55045;49.410;11.030;2022-12-10T05:36:07;96991.66;;;-2.92;100.00
68226;BME280;55045;49.410;11.030;2022-12-10T05:39:21;96996.97;;;-3.10;100.00
68226;BME280;55045;49.410;11.030;2022-12-10T05:42:25;96991.00;;;-3.07;100.00
68226;BME280;55045;49.410;11.030;2022-12-10T05:45:28;97002.81;;;-3.03;100.00
68226;BME280;55045;49.410;11.030;2022-12-10T05:48:35;97011.16;;;-2.95;100.00
68226;BME280;55045;49.410;11.030;2022-12-10T05:51:40;97007.47;;;-2.73;100.00
68226;BME280;55045;49.410;11.030;2022-12-10T05:54:43;97008.63;;;-2.97;100.00
68226;BME280;55045;49.410;11.030;2022-12-10T05:57:47;97017.81;;;-2.85;100.00
68226;BME280;55045;49.410;11.030;2022-12-10T06:00:50;97017.75;;;-2.82;100.00
68226;BME280;55045;49.410;11.030;2022-12-10T06:03:58;97021.19;;;-2.86;100.00
68226;BME280;55045;49.410;11.030;2022-12-10T06:07:03;97028.41;;;-2.57;100.00
68226;BME280;55045;49.410;11.030;2022-12-10T06:10:12;97024.47;;;-2.79;100.00
68226;BME280;55045;49.410;11.030;2022-12-10T06:13:16;97025.56;;;-2.96;100.00
68226;BME280;55045;49.410;11.030;2022-12-10T06:16:19;97024.66;;;-2.93;100.00
68226;BME280;55045;49.410;11.030;2022-12-10T06:19:22;97018.84;;;-3.01;100.00
68226;BME280;55045;49.410;11.030;2022-12-10T06:22:28;97019.66;;;-2.99;100.00
68226;BME280;55045;49.410;11.030;2022-12-10T06:25:32;97023.97;;;-3.04;100.00
68226;BME280;55045;49.410;11.030;2022-12-10T06:28:37;97018.78;;;-2.95;100.00
68226;BME280;55045;49.410;11.030;2022-12-10T06:31:41;97015.16;;;-2.76;100.00
68226;BME280;55045;49.410;11.030;2022-12-10T06:34:44;97017.84;;;-2.90;100.00
68226;BME280;55045;49.410;11.030;2022-12-10T06:37:50;97021.16;;;-2.83;100.00
68226;BME280;55045;49.410;11.030;2022-12-10T06:40:53;97023.00;;;-2.94;100.00
68226;BME280;55045;49.410;11.030;2022-12-10T06:44:16;97039.03;;;-2.92;100.00
68226;BME280;55045;49.410;11.030;2022-12-10T06:47:20;97050.09;;;-2.99;100.00
68226;BME280;55045;49.410;11.030;2022-12-10T06:50:23;97065.31;;;-2.96;100.00
68226;BME280;55045;49.410;11.030;2022-12-10T06:53:28;97058.53;;;-2.97;100.00
68226;BME280;55045;49.410;11.030;2022-12-10T06:56:32;97053.50;;;-3.02;100.00
68226;BME280;55045;49.410;11.030;2022-12-10T06:59:35;97053.44;;;-2.94;100.00
68226;BME280;55045;49.410;11.030;2022-12-10T07:02:39;97054.09;;;-2.80;100.00
68226;BME280;55045;49.410;11.030;2022-12-10T07:05:43;97048.25;;;-2.85;100.00
68226;BME280;55045;49.410;11.030;2022-12-10T07:08:48;97021.59;;;-3.20;100.00
68226;BME280;55045;49.410;11.030;2022-12-10T07:11:51;97046.88;;;-3.13;100.00
68226;BME280;55045;49.410;11.030;2022-12-10T07:14:55;97047.66;;;-3.05;100.00
68226;BME280;55045;49.410;11.030;2022-12-10T07:17:58;97046.88;;;-3.13;100.00
68226;BME280;55045;49.410;11.030;2022-12-10T07:21:12;97028.47;;;-3.31;100.00
68226;BME280;55045;49.410;11.030;2022-12-10T07:24:18;97055.81;;;-2.82;100.00
68226;BME280;55045;49.410;11.030;2022-12-10T07:27:24;97057.88;;;-3.13;100.00
68226;BME280;55045;49.410;11.030;2022-12-10T07:30:28;97056.00;;;-2.99;100.00
68226;BME280;55045;49.410;11.030;2022-12-10T07:33:32;97061.28;;;-3.15;100.00
68226;BME280;55045;49.410;11.030;2022-12-10T07:36:37;97061.91;;;-2.95;100.00
68226;BME280;55045;49.410;11.030;2022-12-10T07:39:42;97056.06;;;-3.03;100.00
68226;BME280;55045;49.410;11.030;2022-12-10T07:42:46;97059.28;;;-2.91;100.00
68226;BME280;55045;49.410;11.030;2022-12-10T07:45:53;97061.16;;;-3.03;100.00
68226;BME280;55045;49.410;11.030;2022-12-10T07:49:31;97079.72;;;-3.01;100.00
68226;BME280;55045;49.410;11.030;2022-12-10T07:52:48;97086.44;;;-2.99;100.00
68226;BME280;55045;49.410;11.030;2022-12-10T07:55:55;97095.50;;;-2.12;100.00
68226;BME280;55045;49.410;11.030;2022-12-10T07:58:59;97098.22;;;-2.92;100.00
68226;BME280;55045;49.410;11.030;2022-12-10T08:02:02;97099.16;;;-3.00;100.00
68226;BME280;55045;49.410;11.030;2022-12-10T08:05:12;97074.72;;;-3.09;100.00
68226;BME280;55045;49.410;11.030;2022-12-10T08:08:16;97104.13;;;-2.91;100.00
68226;BME280;55045;49.410;11.030;2022-12-10T08:11:22;97099.72;;;-2.74;100.00
68226;BME280;55045;49.410;11.030;2022-12-10T08:14:26;97104.88;;;-2.81;100.00
68226;BME280;55045;49.410;11.030;2022-12-10T08:17:34;97101.41;;;-2.74;100.00
68226;BME280;55045;49.410;11.030;2022-12-10T08:20:38;97105.56;;;-2.70;100.00
68226;BME280;55045;49.410;11.030;2022-12-10T08:23:42;97103.81;;;-2.67;100.00
68226;BME280;55045;49.410;11.030;2022-12-10T08:26:47;97108.06;;;-2.66;100.00
68226;BME280;55045;49.410;11.030;2022-12-10T08:29:50;97101.44;;;-2.79;100.00
68226;BME280;55045;49.410;11.030;2022-12-10T08:32:56;97102.19;;;-2.71;100.00
68226;BME280;55045;49.410;11.030;2022-12-10T08:36:02;97100.47;;;-2.69;100.00
68226;BME280;55045;49.410;11.030;2022-12-10T08:39:05;97104.56;;;-2.57;100.00
68226;BME280;55045;49.410;11.030;2022-12-10T08:42:11;97100.50;;;-2.70;100.00
68226;BME280;55045;49.410;11.030;2022-12-10T08:45:17;97107.75;;;-2.41;100.00
68226;BME280;55045;49.410;11.030;2022-12-10T08:48:24;97108.63;;;-2.42;100.00
68226;BME280;55045;49.410;11.030;2022-12-10T08:51:27;97098.72;;;-2.64;100.00
68226;BME280;55045;49.410;11.030;2022-12-10T08:54:31;97102.72;;;-2.46;100.00
68226;BME280;55045;49.410;11.030;2022-12-10T08:57:37;97102.84;;;-2.53;100.00
68226;BME280;55045;49.410;11.030;2022-12-10T09:01:05;97100.91;;;-2.35;100.00
68226;BME280;55045;49.410;11.030;2022-12-10T09:04:33;97101.00;;;-1.84;100.00
68226;BME280;55045;49.410;11.030;2022-12-10T09:07:54;97092.56;;;-2.46;100.00
68226;BME280;55045;49.410;11.030;2022-12-10T09:11:13;97093.22;;;-2.32;100.00
68226;BME280;55045;49.410;11.030;2022-12-10T09:14:29;97021.38;;;-2.38;100.00
68226;BME280;55045;49.410;11.030;2022-12-10T09:17:34;97080.03;;;-1.98;100.00
68226;BME280;55045;49.410;11.030;2022-12-10T09:20:43;97085.06;;;-1.95;100.00
68226;BME280;55045;49.410;11.030;2022-12-10T09:23:54;97080.16;;;-2.07;100.00
68226;BME280;55045;49.410;11.030;2022-12-10T09:27:01;97088.72;;;-2.11;100.00
68226;BME280;55045;49.410;11.030;2022-12-10T09:30:16;97085.19;;;-2.03;100.00
68226;BME280;55045;49.410;11.030;2022-12-10T09:33:30;97087.31;;;-1.77;100.00
68226;BME280;55045;49.410;11.030;2022-12-10T09:36:42;97080.97;;;-2.04;100.00
68226;BME280;55045;49.410;11.030;2022-12-10T09:39:55;97085.53;;;-1.70;100.00
68226;BME280;55045;49.410;11.030;2022-12-10T09:43:31;97078.81;;;-1.76;100.00
68226;BME280;55045;49.410;11.030;2022-12-10T09:46:59;97088.28;;;-1.82;100.00
68226;BME280;55045;49.410;11.030;2022-12-10T09:50:30;97090.06;;;-1.89;100.00
68226;BME280;55045;49.410;11.030;2022-12-10T09:53:55;97085.38;;;-1.61;100.00
68226;BME280;55045;49.410;11.030;2022-12-10T09:57:07;97097.16;;;-1.57;100.00
68226;BME280;55045;49.410;11.030;2022-12-10T10:00:54;97099.09;;;-1.71;100.00
68226;BME280;55045;49.410;11.030;2022-12-10T10:04:16;97103.31;;;-1.70;100.00
68226;BME280;55045;49.410;11.030;2022-12-10T10:08:12;97108.53;;;-1.79;100.00
68226;BME280;55045;49.410;11.030;2022-12-10T10:11:47;97110.72;;;-1.56;100.00
68226;BME280;55045;49.410;11.030;2022-12-10T10:14:53;97109.00;;;-1.56;100.00
68226;BME280;55045;49.410;11.030;2022-12-10T10:18:04;97093.00;;;-1.61;100.00
68226;BME280;55045;49.410;11.030;2022-12-10T10:21:43;97112.22;;;-1.45;100.00
68226;BME280;55045;49.410;11.030;2022-12-10T10:24:53;97115.00;;;-1.58;100.00
68226;BME280;55045;49.410;11.030;2022-12-10T10:28:34;97100.50;;;-1.55;100.00
68226;BME280;55045;49.410;11.030;2022-12-10T10:34:54;97091.06;;;-1.47;100.00
68226;BME280;55045;49.410;11.030;2022-12-10T10:38:12;97088.91;;;-1.20;100.00
68226;BME280;55045;49.410;11.030;2022-12-10T10:41:35;97089.22;;;-0.92;100.00
68226;BME280;55045;49.410;11.030;2022-12-10T10:44:49;97087.41;;;-0.85;100.00
68226;BME280;55045;49.410;11.030;2022-12-10T10:48:03;97089.88;;;-0.82;100.00
68226;BME280;55045;49.410;11.030;2022-12-10T10:51:23;97086.88;;;-1.03;100.00
68226;BME280;55045;49.410;11.030;2022-12-10T10:54:55;97081.72;;;-0.98;100.00
68226;BME280;55045;49.410;11.030;2022-12-10T10:58:00;97067.28;;;-0.98;100.00
68226;BME280;55045;49.410;11.030;2022-12-10T11:01:06;97063.75;;;-0.92;100.00
68226;BME280;55045;49.410;11.030;2022-12-10T11:04:29;97054.34;;;-0.87;100.00
68226;BME280;55045;49.410;11.030;2022-12-10T11:08:00;97032.59;;;-1.03;100.00
68226;BME280;55045;49.410;11.030;2022-12-10T11:11:37;97030.09;;;-1.05;100.00
68226;BME280;55045;49.410;11.030;2022-12-10T11:15:35;97054.06;;;-0.73;100.00
68226;BME280;55045;49.410;11.030;2022-12-10T11:18:54;97056.53;;;-0.69;100.00
68226;BME280;55045;49.410;11.030;2022-12-10T11:22:24;97071.38;;;-0.49;100.00
68226;BME280;55045;49.410;11.030;2022-12-10T11:25:42;97066.91;;;-0.79;100.00
68226;BME280;55045;49.410;11.030;2022-12-10T11:29:11;97070.97;;;-0.69;100.00
68226;BME280;55045;49.410;11.030;2022-12-10T11:32:49;97060.78;;;-0.69;100.00
68226;BME280;55045;49.410;11.030;2022-12-10T11:36:30;97069.22;;;-0.67;100.00
68226;BME280;55045;49.410;11.030;2022-12-10T11:40:00;97073.44;;;-0.66;100.00
68226;BME280;55045;49.410;11.030;2022-12-10T11:47:22;97034.91;;;-0.93;100.00
68226;BME280;55045;49.410;11.030;2022-12-10T11:50:55;97059.19;;;-0.35;100.00
68226;BME280;55045;49.410;11.030;2022-12-10T11:54:13;97066.31;;;-0.50;100.00
68226;BME280;55045;49.410;11.030;2022-12-10T11:57:29;97073.16;;;-0.54;100.00
68226;BME280;55045;49.410;11.030;2022-12-10T12:00:48;97029.72;;;-0.87;100.00
68226;BME280;55045;49.410;11.030;2022-12-10T12:04:28;97058.88;;;-0.60;100.00
68226;BME280;55045;49.410;11.030;2022-12-10T12:07:52;97070.59;;;-0.52;100.00
68226;BME280;55045;49.410;11.030;2022-12-10T12:15:08;97062.72;;;-0.40;100.00
68226;BME280;55045;49.410;11.030;2022-12-10T12:18:37;97068.03;;;-0.51;100.00
68226;BME280;55045;49.410;11.030;2022-12-10T12:22:14;97078.78;;;-0.38;100.00
68226;BME280;55045;49.410;11.030;2022-12-10T12:25:27;97081.03;;;-0.24;100.00
68226;BME280;55045;49.410;11.030;2022-12-10T12:28:37;97082.41;;;-0.10;100.00
68226;BME280;55045;49.410;11.030;2022-12-10T12:31:49;97078.88;;;-0.43;100.00
68226;BME280;55045;49.410;11.030;2022-12-10T12:35:14;97088.19;;;-0.42;100.00
68226;BME280;55045;49.410;11.030;2022-12-10T12:38:43;97076.84;;;-0.67;100.00
68226;BME280;55045;49.410;11.030;2022-12-10T12:42:16;97072.97;;;-0.45;100.00
68226;BME280;55045;49.410;11.030;2022-12-10T12:45:34;97069.59;;;-0.45;100.00
68226;BME280;55045;49.410;11.030;2022-12-10T12:48:46;97081.56;;;-0.49;100.00
68226;BME280;55045;49.410;11.030;2022-12-10T12:52:26;97074.84;;;-0.53;100.00
68226;BME280;55045;49.410;11.030;2022-12-10T12:55:52;97040.53;;;-0.37;100.00
68226;BME280;55045;49.410;11.030;2022-12-10T12:59:22;97078.78;;;-0.38;100.00
68226;BME280;55045;49.410;11.030;2022-12-10T13:03:00;97079.66;;;-0.39;100.00
68226;BME280;55045;49.410;11.030;2022-12-10T13:06:14;97090.00;;;-0.47;100.00
68226;BME280;55045;49.410;11.030;2022-12-10T13:09:27;97096.63;;;-0.01;100.00
68226;BME280;55045;49.410;11.030;2022-12-10T13:12:32;97084.91;;;-0.47;100.00
68226;BME280;55045;49.410;11.030;2022-12-10T13:15:48;97079.88;;;-0.10;100.00
68226;BME280;55045;49.410;11.030;2022-12-10T13:19:24;97106.66;;;-0.32;100.00
68226;BME280;55045;49.410;11.030;2022-12-10T13:22:43;97118.03;;;-0.07;100.00
68226;BME280;55045;49.410;11.030;2022-12-10T13:25:59;97001.66;;;-1.25;100.00
68226;BME280;55045;49.410;11.030;2022-12-10T13:29:13;97099.72;;;-0.66;100.00
68226;BME280;55045;49.410;11.030;2022-12-10T13:32:43;97131.72;;;-0.51;100.00
68226;BME280;55045;49.410;11.030;2022-12-10T13:35:57;97142.13;;;-0.63;100.00
68226;BME280;55045;49.410;11.030;2022-12-10T13:39:20;97142.69;;;-0.49;100.00
68226;BME280;55045;49.410;11.030;2022-12-10T13:42:30;97149.72;;;-0.60;100.00
68226;BME280;55045;49.410;11.030;2022-12-10T13:46:21;97141.88;;;-0.49;100.00
68226;BME280;55045;49.410;11.030;2022-12-10T13:49:27;97113.31;;;-0.65;100.00
68226;BME280;55045;49.410;11.030;2022-12-10T13:52:37;97146.25;;;-0.57;100.00
68226;BME280;55045;49.410;11.030;2022-12-10T13:55:54;97150.31;;;-0.47;100.00
68226;BME280;55045;49.410;11.030;2022-12-10T13:59:17;97149.63;;;-0.55;100.00
68226;BME280;55045;49.410;11.030;2022-12-10T14:02:45;97140.94;;;-0.47;100.00
68226;BME280;55045;49.410;11.030;2022-12-10T14:06:11;97152.44;;;-0.27;100.00
68226;BME280;55045;49.410;11.030;2022-12-10T14:09:19;97152.97;;;-0.53;100.00
68226;BME280;55045;49.410;11.030;2022-12-10T14:12:27;97147.75;;;-0.47;100.00
68226;BME280;55045;49.410;11.030;2022-12-10T14:15:37;97106.19;;;-0.91;100.00
68226;BME280;55045;49.410;11.030;2022-12-10T14:18:42;97162.38;;;-0.57;100.00
68226;BME280;55045;49.410;11.030;2022-12-10T14:21:46;97167.38;;;-0.52;100.00
68226;BME280;55045;49.410;11.030;2022-12-10T14:24:50;97174.81;;;-0.42;100.00
68226;BME280;55045;49.410;11.030;2022-12-10T14:27:55;97187.25;;;-0.70;100.00
68226;BME280;55045;49.410;11.030;2022-12-10T14:30:59;97184.63;;;-0.67;100.00
68226;BME280;55045;49.410;11.030;2022-12-10T14:34:05;97177.09;;;-0.73;100.00
68226;BME280;55045;49.410;11.030;2022-12-10T14:37:13;97201.66;;;-0.69;100.00
68226;BME280;55045;49.410;11.030;2022-12-10T14:40:21;97202.50;;;-0.68;100.00
68226;BME280;55045;49.410;11.030;2022-12-10T14:43:31;97199.00;;;-0.64;100.00
68226;BME280;55045;49.410;11.030;2022-12-10T14:46:37;97213.28;;;-0.55;100.00
68226;BME280;55045;49.410;11.030;2022-12-10T14:49:43;97207.44;;;-0.62;100.00
68226;BME280;55045;49.410;11.030;2022-12-10T14:52:50;97228.56;;;-0.55;100.00
68226;BME280;55045;49.410;11.030;2022-12-10T14:55:57;97226.16;;;-0.18;100.00
68226;BME280;55045;49.410;11.030;2022-12-10T14:59:04;97209.13;;;-0.60;100.00
68226;BME280;55045;49.410;11.030;2022-12-10T15:02:20;97189.63;;;-0.62;100.00
68226;BME280;55045;49.410;11.030;2022-12-10T15:05:27;97212.50;;;-0.59;100.00
68226;BME280;55045;49.410;11.030;2022-12-10T15:08:35;97215.88;;;-0.57;100.00
68226;BME280;55045;49.410;11.030;2022-12-10T15:11:52;97198.09;;;-0.62;100.00
68226;BME280;55045;49.410;11.030;2022-12-10T15:15:07;97227.72;;;-0.56;100.00
68226;BME280;55045;49.410;11.030;2022-12-10T15:18:20;97206.78;;;-0.70;100.00
68226;BME280;55045;49.410;11.030;2022-12-10T15:21:25;97224.84;;;-0.38;100.00
68226;BME280;55045;49.410;11.030;2022-12-10T15:24:36;97229.13;;;-0.41;100.00
68226;BME280;55045;49.410;11.030;2022-12-10T15:27:52;97216.53;;;-0.04;100.00
68226;BME280;55045;49.410;11.030;2022-12-10T15:30:58;97225.66;;;-0.36;100.00
68226;BME280;55045;49.410;11.030;2022-12-10T15:34:08;97222.59;;;-0.54;100.00
68226;BME280;55045;49.410;11.030;2022-12-10T15:37:18;97216.63;;;-0.53;100.00
68226;BME280;55045;49.410;11.030;2022-12-10T15:40:26;97225.88;;;-0.48;100.00
68226;BME280;55045;49.410;11.030;2022-12-10T15:43:30;97222.22;;;-0.35;100.00
68226;BME280;55045;49.410;11.030;2022-12-10T15:46:46;97222.53;;;-0.50;100.00
68226;BME280;55045;49.410;11.030;2022-12-10T15:49:53;97217.47;;;-0.53;100.00
68226;BME280;55045;49.410;11.030;2022-12-10T15:52:57;97223.59;;;-0.63;100.00
68226;BME280;55045;49.410;11.030;2022-12-10T15:56:01;97230.53;;;-0.70;100.00
68226;BME280;55045;49.410;11.030;2022-12-10T15:59:04;97245.59;;;-0.57;100.00
68226;BME280;55045;49.410;11.030;2022-12-10T16:02:19;97241.34;;;-0.57;100.00
68226;BME280;55045;49.410;11.030;2022-12-10T16:05:34;97256.75;;;-0.65;100.00
68226;BME280;55045;49.410;11.030;2022-12-10T16:08:41;97228.22;;;-0.83;100.00
68226;BME280;55045;49.410;11.030;2022-12-10T16:11:48;97261.78;;;-0.60;100.00
68226;BME280;55045;49.410;11.030;2022-12-10T16:14:53;97235.03;;;-0.85;100.00
68226;BME280;55045;49.410;11.030;2022-12-10T16:17:58;97266.16;;;-0.68;100.00
68226;BME280;55045;49.410;11.030;2022-12-10T16:21:04;97262.84;;;-0.75;100.00
68226;BME280;55045;49.410;11.030;2022-12-10T16:24:09;97259.47;;;-0.75;100.00
68226;BME280;55045;49.410;11.030;2022-12-10T16:27:14;97265.38;;;-0.73;100.00
68226;BME280;55045;49.410;11.030;2022-12-10T16:30:34;97265.34;;;-0.72;100.00
68226;BME280;55045;49.410;11.030;2022-12-10T16:34:47;97262.97;;;-0.81;100.00
68226;BME280;55045;49.410;11.030;2022-12-10T16:37:55;97256.22;;;-0.83;100.00
68226;BME280;55045;49.410;11.030;2022-12-10T16:41:00;97270.44;;;-0.70;100.00